sensor_id;sensor_type;location;lat;lon;timestamp;temperature;humidity
10512;DHT22;5304;48.604;2.096;2023-10-13T03:26:36;18.20;99.90
10512;DHT22;5304;48.604;2.096;2023-10-13T03:29:21;18.20;99.90
10512;DHT22;5304;48.604;2.096;2023-10-13T03:32:13;18.20;99.90
10512;DHT22;5304;48.604;2.096;2023-10-13T03:35:00;18.10;99.90
10512;DHT22;5304;48.604;2.096;2023-10-13T03:37:44;18.10;99.90
10512;DHT22;5304;48.604;2.096;2023-10-13T03:40:29;18.10;99.90
10512;DHT22;5304;48.604;2.096;2023-10-13T03:43:14;18.00;99.90
10512;DHT22;5304;48.604;2.096;2023-10-13T03:46:05;18.00;99.90
10512;DHT22;5304;48.604;2.096;2023-10-13T03:48:52;17.90;99.90
10512;DHT22;5304;48.604;2.096;2023-10-13T03:51:41;18.00;99.90
10512;DHT22;5304;48.604;2.096;2023-10-13T03:54:25;18.00;99.90
10512;DHT22;5304;48.604;2.096;2023-10-13T03:57:13;18.00;99.90
10512;DHT22;5304;48.604;2.096;2023-10-13T03:59:58;18.00;99.90
10512;DHT22;5304;48.604;2.096;2023-10-13T04:02:42;18.10;99.90
10512;DHT22;5304;48.604;2.096;2023-10-13T04:05:32;18.00;99.90
10512;DHT22;5304;48.604;2.096;2023-10-13T04:08:24;18.00;99.90
10512;DHT22;5304;48.604;2.096;2023-10-13T04:11:12;17.90;99.90
10512;DHT22;5304;48.604;2.096;2023-10-13T04:14:15;17.80;99.90
10512;DHT22;5304;48.604;2.096;2023-10-13T04:17:07;17.80;99.90
10512;DHT22;5304;48.604;2.096;2023-10-13T04:19:58;17.80;99.90
10512;DHT22;5304;48.604;2.096;2023-10-13T04:22:52;17.70;99.90
10512;DHT22;5304;48.604;2.096;2023-10-13T04:25:36;17.70;99.90
10512;DHT22;5304;48.604;2.096;2023-10-13T04:28:26;17.70;99.90
10512;DHT22;5304;48.604;2.096;2023-10-13T04:31:15;17.70;99.90
10512;DHT22;5304;48.604;2.096;2023-10-13T04:34:09;17.70;99.90
10512;DHT22;5304;48.604;2.096;2023-10-13T04:37:02;17.70;99.90
10512;DHT22;5304;48.604;2.096;2023-10-13T04:40:05;17.70;99.90
10512;DHT22;5304;48.604;2.096;2023-10-13T04:42:54;17.80;99.90
10512;DHT22;5304;48.604;2.096;2023-10-13T04:45:40;17.80;99.90
10512;DHT22;5304;48.604;2.096;2023-10-13T04:48:37;17.90;99.90
10512;DHT22;5304;48.604;2.096;2023-10-13T04:51:23;17.80;99.90
10512;DHT22;5304;48.604;2.096;2023-10-13T04:54:30;17.80;99.90
10512;DHT22;5304;48.604;2.096;2023-10-13T05:00:04;17.60;99.90
10512;DHT22;5304;48.604;2.096;2023-10-13T05:02:55;17.70;99.90
10512;DHT22;5304;48.604;2.096;2023-10-13T05:05:59;17.70;99.90
10512;DHT22;5304;48.604;2.096;2023-10-13T05:09:15;17.80;99.90
10512;DHT22;5304;48.604;2.096;2023-10-13T05:12:19;17.80;99.90
10512;DHT22;5304;48.604;2.096;2023-10-13T05:15:29;17.90;99.90
10512;DHT22;5304;48.604;2.096;2023-10-13T05:18:33;18.00;99.90
10512;DHT22;5304;48.604;2.096;2023-10-13T05:21:36;18.00;99.90
10512;DHT22;5304;48.604;2.096;2023-10-13T05:24:39;18.00;99.90
10512;DHT22;5304;48.604;2.096;2023-10-13T05:27:43;18.10;99.90
10512;DHT22;5304;48.604;2.096;2023-10-13T05:30:46;18.10;99.90
10512;DHT22;5304;48.604;2.096;2023-10-13T05:33:49;18.10;99.90
10512;DHT22;5304;48.604;2.096;2023-10-13T05:36:52;18.10;99.90
10512;DHT22;5304;48.604;2.096;2023-10-13T05:39:56;18.30;99.90
10512;DHT22;5304;48.604;2.096;2023-10-13T05:42:59;18.30;99.90
10512;DHT22;5304;48.604;2.096;2023-10-13T05:46:04;18.30;99.90
10512;DHT22;5304;48.604;2.096;2023-10-13T05:49:18;18.30;99.90
10512;DHT22;5304;48.604;2.096;2023-10-13T05:52:23;18.20;99.90
10512;DHT22;5304;48.604;2.096;2023-10-13T05:55:28;18.30;99.90
10512;DHT22;5304;48.604;2.096;2023-10-13T05:58:32;18.40;99.90
10512;DHT22;5304;48.604;2.096;2023-10-13T06:01:35;18.40;99.90
10512;DHT22;5304;48.604;2.096;2023-10-13T06:04:38;18.50;99.90
10512;DHT22;5304;48.604;2.096;2023-10-13T06:07:41;18.40;99.90
10512;DHT22;5304;48.604;2.096;2023-10-13T06:10:44;18.50;99.90
10512;DHT22;5304;48.604;2.096;2023-10-13T06:13:48;18.50;99.90
10512;DHT22;5304;48.604;2.096;2023-10-13T06:16:59;18.40;99.90
10512;DHT22;5304;48.604;2.096;2023-10-13T06:20:02;18.40;99.90
10512;DHT22;5304;48.604;2.096;2023-10-13T06:23:05;18.40;99.90
10512;DHT22;5304;48.604;2.096;2023-10-13T06:26:08;18.30;99.90
10512;DHT22;5304;48.604;2.096;2023-10-13T06:29:11;18.30;99.90
10512;DHT22;5304;48.604;2.096;2023-10-13T06:32:03;18.50;99.90
10512;DHT22;5304;48.604;2.096;2023-10-13T06:34:58;18.40;99.90
10512;DHT22;5304;48.604;2.096;2023-10-13T06:37:42;18.50;99.90
10512;DHT22;5304;48.604;2.096;2023-10-13T06:40:26;18.50;99.90
10512;DHT22;5304;48.604;2.096;2023-10-13T06:43:21;18.50;99.90
10512;DHT22;5304;48.604;2.096;2023-10-13T06:46:07;18.50;99.90
10512;DHT22;5304;48.604;2.096;2023-10-13T06:48:58;18.50;99.90
10512;DHT22;5304;48.604;2.096;2023-10-13T06:51:44;18.60;99.90
10512;DHT22;5304;48.604;2.096;2023-10-13T06:54:30;18.60;99.90
10512;DHT22;5304;48.604;2.096;2023-10-13T06:57:17;18.70;99.90
10512;DHT22;5304;48.604;2.096;2023-10-13T07:00:05;18.70;99.90
10512;DHT22;5304;48.604;2.096;2023-10-13T07:02:52;18.70;99.90
10512;DHT22;5304;48.604;2.096;2023-10-13T07:05:38;18.70;99.90
10512;DHT22;5304;48.604;2.096;2023-10-13T07:08:22;18.70;99.90
10512;DHT22;5304;48.604;2.096;2023-10-13T07:11:07;18.70;99.90
10512;DHT22;5304;48.604;2.096;2023-10-13T07:14:04;18.80;99.90
10512;DHT22;5304;48.604;2.096;2023-10-13T07:17:01;18.80;99.90
10512;DHT22;5304;48.604;2.096;2023-10-13T07:19:46;18.80;99.90
10512;DHT22;5304;48.604;2.096;2023-10-13T07:22:37;18.80;99.90
10512;DHT22;5304;48.604;2.096;2023-10-13T07:25:24;18.80;99.90
10512;DHT22;5304;48.604;2.096;2023-10-13T07:28:09;18.80;99.90
10512;DHT22;5304;48.604;2.096;2023-10-13T07:30:54;18.90;99.90
10512;DHT22;5304;48.604;2.096;2023-10-13T07:33:38;19.00;99.90
10512;DHT22;5304;48.604;2.096;2023-10-13T07:36:24;19.00;99.90
10512;DHT22;5304;48.604;2.096;2023-10-13T07:39:17;19.00;99.90
10512;DHT22;5304;48.604;2.096;2023-10-13T07:42:05;19.10;99.90
10512;DHT22;5304;48.604;2.096;2023-10-13T07:44:52;19.20;99.90
10512;DHT22;5304;48.604;2.096;2023-10-13T07:47:39;19.30;99.90
10512;DHT22;5304;48.604;2.096;2023-10-13T07:50:23;19.50;99.90
10512;DHT22;5304;48.604;2.096;2023-10-13T07:53:09;19.50;99.90
10512;DHT22;5304;48.604;2.096;2023-10-13T07:56:04;19.50;99.90
10512;DHT22;5304;48.604;2.096;2023-10-13T07:58:52;19.60;99.90
10512;DHT22;5304;48.604;2.096;2023-10-13T08:01:37;19.60;99.90
10512;DHT22;5304;48.604;2.096;2023-10-13T08:04:27;19.50;99.90
10512;DHT22;5304;48.604;2.096;2023-10-13T08:07:12;19.60;99.90
10512;DHT22;5304;48.604;2.096;2023-10-13T08:09:57;19.60;99.90
10512;DHT22;5304;48.604;2.096;2023-10-13T08:12:43;19.90;99.90
10512;DHT22;5304;48.604;2.096;2023-10-13T08:15:28;20.10;99.90
10512;DHT22;5304;48.604;2.096;2023-10-13T08:18:18;20.10;99.90
10512;DHT22;5304;48.604;2.096;2023-10-13T08:21:16;20.10;99.90
10512;DHT22;5304;48.604;2.096;2023-10-13T08:24:02;20.10;99.90
10512;DHT22;5304;48.604;2.096;2023-10-13T08:26:51;20.10;99.90
10512;DHT22;5304;48.604;2.096;2023-10-13T08:29:59;20.60;99.90
10512;DHT22;5304;48.604;2.096;2023-10-13T08:32:43;21.80;99.90
10512;DHT22;5304;48.604;2.096;2023-10-13T08:35:38;23.10;99.90
10512;DHT22;5304;48.604;2.096;2023-10-13T08:38:28;23.30;99.90
10512;DHT22;5304;48.604;2.096;2023-10-13T08:41:14;22.90;99.90
10512;DHT22;5304;48.604;2.096;2023-10-13T08:44:02;22.50;99.90
10512;DHT22;5304;48.604;2.096;2023-10-13T08:46:48;22.10;99.90
10512;DHT22;5304;48.604;2.096;2023-10-13T08:49:48;22.00;99.90
10512;DHT22;5304;48.604;2.096;2023-10-13T08:52:38;22.20;99.90
10512;DHT22;5304;48.604;2.096;2023-10-13T08:55:32;22.10;99.90
10512;DHT22;5304;48.604;2.096;2023-10-13T08:58:49;22.10;99.90
10512;DHT22;5304;48.604;2.096;2023-10-13T09:01:37;22.40;99.90
10512;DHT22;5304;48.604;2.096;2023-10-13T09:04:24;22.80;99.90
10512;DHT22;5304;48.604;2.096;2023-10-13T09:07:17;23.30;99.90
10512;DHT22;5304;48.604;2.096;2023-10-13T09:10:06;23.00;99.90
10512;DHT22;5304;48.604;2.096;2023-10-13T09:13:16;22.60;99.90
10512;DHT22;5304;48.604;2.096;2023-10-13T09:16:12;22.30;99.90
10512;DHT22;5304;48.604;2.096;2023-10-13T09:19:04;22.50;99.90
10512;DHT22;5304;48.604;2.096;2023-10-13T09:21:49;22.50;99.90
10512;DHT22;5304;48.604;2.096;2023-10-13T09:24:38;22.50;99.90
10512;DHT22;5304;48.604;2.096;2023-10-13T09:27:29;22.50;99.90
10512;DHT22;5304;48.604;2.096;2023-10-13T09:30:14;23.00;99.90
10512;DHT22;5304;48.604;2.096;2023-10-13T09:33:08;23.60;99.90
10512;DHT22;5304;48.604;2.096;2023-10-13T09:35:52;24.00;99.90
10512;DHT22;5304;48.604;2.096;2023-10-13T09:38:38;24.30;99.90
10512;DHT22;5304;48.604;2.096;2023-10-13T09:41:24;24.50;99.90
10512;DHT22;5304;48.604;2.096;2023-10-13T09:44:16;24.60;99.90
10512;DHT22;5304;48.604;2.096;2023-10-13T09:47:02;24.90;99.90
10512;DHT22;5304;48.604;2.096;2023-10-13T09:49:59;24.90;99.90
10512;DHT22;5304;48.604;2.096;2023-10-13T09:52:47;24.60;99.90
10512;DHT22;5304;48.604;2.096;2023-10-13T09:55:35;24.50;99.90
10512;DHT22;5304;48.604;2.096;2023-10-13T09:58:23;24.70;99.90
10512;DHT22;5304;48.604;2.096;2023-10-13T10:01:16;24.80;99.90
10512;DHT22;5304;48.604;2.096;2023-10-13T10:04:13;24.80;99.90
10512;DHT22;5304;48.604;2.096;2023-10-13T10:07:01;24.90;99.90
10512;DHT22;5304;48.604;2.096;2023-10-13T10:09:56;25.20;99.90
10512;DHT22;5304;48.604;2.096;2023-10-13T10:13:11;25.50;99.90
10512;DHT22;5304;48.604;2.096;2023-10-13T10:16:10;25.50;99.90
10512;DHT22;5304;48.604;2.096;2023-10-13T10:19:01;25.20;99.90
10512;DHT22;5304;48.604;2.096;2023-10-13T10:22:01;25.00;99.90
10512;DHT22;5304;48.604;2.096;2023-10-13T10:24:58;24.80;99.90
10512;DHT22;5304;48.604;2.096;2023-10-13T10:27:43;24.50;99.90
10512;DHT22;5304;48.604;2.096;2023-10-13T10:30:29;24.10;99.90
10512;DHT22;5304;48.604;2.096;2023-10-13T10:33:13;24.10;99.90
10512;DHT22;5304;48.604;2.096;2023-10-13T10:36:00;24.20;99.90
10512;DHT22;5304;48.604;2.096;2023-10-13T10:38:55;24.30;99.90
10512;DHT22;5304;48.604;2.096;2023-10-13T10:41:43;24.30;99.90
10512;DHT22;5304;48.604;2.096;2023-10-13T10:44:27;24.10;99.90
10512;DHT22;5304;48.604;2.096;2023-10-13T10:47:21;24.00;99.90
10512;DHT22;5304;48.604;2.096;2023-10-13T10:50:26;23.80;99.90
10512;DHT22;5304;48.604;2.096;2023-10-13T10:53:19;23.80;99.90
10512;DHT22;5304;48.604;2.096;2023-10-13T10:56:05;23.80;99.90
10512;DHT22;5304;48.604;2.096;2023-10-13T10:58:54;23.90;99.90
10512;DHT22;5304;48.604;2.096;2023-10-13T11:01:43;24.30;99.90
10512;DHT22;5304;48.604;2.096;2023-10-13T11:04:31;24.80;99.90
10512;DHT22;5304;48.604;2.096;2023-10-13T11:07:23;25.20;99.90
10512;DHT22;5304;48.604;2.096;2023-10-13T11:10:11;25.40;99.90
10512;DHT22;5304;48.604;2.096;2023-10-13T11:13:11;25.20;99.90
10512;DHT22;5304;48.604;2.096;2023-10-13T11:15:57;25.00;99.90
10512;DHT22;5304;48.604;2.096;2023-10-13T11:18:42;24.80;99.90
10512;DHT22;5304;48.604;2.096;2023-10-13T11:21:30;24.80;99.90
10512;DHT22;5304;48.604;2.096;2023-10-13T11:24:15;24.80;99.90
10512;DHT22;5304;48.604;2.096;2023-10-13T11:27:01;24.70;99.90
10512;DHT22;5304;48.604;2.096;2023-10-13T11:29:47;24.80;99.90
10512;DHT22;5304;48.604;2.096;2023-10-13T11:32:36;24.80;99.90
10512;DHT22;5304;48.604;2.096;2023-10-13T11:35:20;24.80;99.90
10512;DHT22;5304;48.604;2.096;2023-10-13T11:38:04;24.90;99.90
10512;DHT22;5304;48.604;2.096;2023-10-13T11:41:00;24.90;99.90
10512;DHT22;5304;48.604;2.096;2023-10-13T11:44:03;24.80;99.90
10512;DHT22;5304;48.604;2.096;2023-10-13T11:47:11;24.80;99.90
10512;DHT22;5304;48.604;2.096;2023-10-13T11:50:22;24.60;99.90
10512;DHT22;5304;48.604;2.096;2023-10-13T11:53:16;24.50;99.90
10512;DHT22;5304;48.604;2.096;2023-10-13T11:56:01;24.40;99.90
10512;DHT22;5304;48.604;2.096;2023-10-13T11:58:52;24.30;99.90
10512;DHT22;5304;48.604;2.096;2023-10-13T12:01:37;24.30;99.90
10512;DHT22;5304;48.604;2.096;2023-10-13T12:04:47;24.40;99.90
10512;DHT22;5304;48.604;2.096;2023-10-13T12:07:43;24.40;99.90
10512;DHT22;5304;48.604;2.096;2023-10-13T12:10:32;24.60;99.90
10512;DHT22;5304;48.604;2.096;2023-10-13T12:13:33;24.60;99.90
10512;DHT22;5304;48.604;2.096;2023-10-13T12:16:17;24.50;99.90
10512;DHT22;5304;48.604;2.096;2023-10-13T12:19:03;24.70;99.90
10512;DHT22;5304;48.604;2.096;2023-10-13T12:21:50;24.90;99.90
10512;DHT22;5304;48.604;2.096;2023-10-13T12:24:38;25.10;99.90
10512;DHT22;5304;48.604;2.096;2023-10-13T12:27:26;25.20;99.90
10512;DHT22;5304;48.604;2.096;2023-10-13T12:30:19;25.30;99.90
10512;DHT22;5304;48.604;2.096;2023-10-13T12:33:20;25.50;99.90
10512;DHT22;5304;48.604;2.096;2023-10-13T12:36:33;25.60;99.90
10512;DHT22;5304;48.604;2.096;2023-10-13T12:39:25;25.90;99.90
10512;DHT22;5304;48.604;2.096;2023-10-13T12:42:30;25.80;99.90
10512;DHT22;5304;48.604;2.096;2023-10-13T12:45:41;25.70;99.90
10512;DHT22;5304;48.604;2.096;2023-10-13T12:48:45;25.80;99.90
10512;DHT22;5304;48.604;2.096;2023-10-13T12:51:48;25.80;99.90
10512;DHT22;5304;48.604;2.096;2023-10-13T12:54:35;25.80;99.90
10512;DHT22;5304;48.604;2.096;2023-10-13T12:57:20;25.60;99.90
10512;DHT22;5304;48.604;2.096;2023-10-13T13:00:07;25.30;99.90
10512;DHT22;5304;48.604;2.096;2023-10-13T13:03:01;25.10;99.90
10512;DHT22;5304;48.604;2.096;2023-10-13T13:05:55;25.40;99.90
10512;DHT22;5304;48.604;2.096;2023-10-13T13:08:39;25.40;99.90
10512;DHT22;5304;48.604;2.096;2023-10-13T13:11:28;25.40;99.90
10512;DHT22;5304;48.604;2.096;2023-10-13T13:14:15;25.20;99.90
10512;DHT22;5304;48.604;2.096;2023-10-13T13:17:00;24.90;99.90
10512;DHT22;5304;48.604;2.096;2023-10-13T13:19:50;24.80;99.90
10512;DHT22;5304;48.604;2.096;2023-10-13T13:22:35;24.70;99.90
10512;DHT22;5304;48.604;2.096;2023-10-13T13:25:19;24.60;99.90
10512;DHT22;5304;48.604;2.096;2023-10-13T13:28:10;24.80;99.90
10512;DHT22;5304;48.604;2.096;2023-10-13T13:30:55;24.80;99.90
10512;DHT22;5304;48.604;2.096;2023-10-13T13:33:39;24.80;99.90
10512;DHT22;5304;48.604;2.096;2023-10-13T13:36:27;24.80;99.90
10512;DHT22;5304;48.604;2.096;2023-10-13T13:39:11;24.80;99.90
10512;DHT22;5304;48.604;2.096;2023-10-13T13:41:56;24.80;99.90
10512;DHT22;5304;48.604;2.096;2023-10-13T13:44:44;24.80;99.90
10512;DHT22;5304;48.604;2.096;2023-10-13T13:47:32;24.60;99.90
10512;DHT22;5304;48.604;2.096;2023-10-13T13:50:17;24.60;99.90
10512;DHT22;5304;48.604;2.096;2023-10-13T13:53:08;24.50;99.90
10512;DHT22;5304;48.604;2.096;2023-10-13T13:55:55;24.40;99.90
10512;DHT22;5304;48.604;2.096;2023-10-13T13:58:40;24.40;99.90
10512;DHT22;5304;48.604;2.096;2023-10-13T14:01:24;24.30;99.90
10512;DHT22;5304;48.604;2.096;2023-10-13T14:04:13;24.30;99.90
10512;DHT22;5304;48.604;2.096;2023-10-13T14:07:01;24.30;99.90
10512;DHT22;5304;48.604;2.096;2023-10-13T14:09:50;24.30;99.90
10512;DHT22;5304;48.604;2.096;2023-10-13T14:12:49;24.30;99.90
10512;DHT22;5304;48.604;2.096;2023-10-13T14:15:34;24.30;99.90
10512;DHT22;5304;48.604;2.096;2023-10-13T14:18:24;24.30;99.90
10512;DHT22;5304;48.604;2.096;2023-10-13T14:21:14;24.30;99.90
10512;DHT22;5304;48.604;2.096;2023-10-13T14:24:01;24.20;99.90
10512;DHT22;5304;48.604;2.096;2023-10-13T14:26:46;24.20;99.90
10512;DHT22;5304;48.604;2.096;2023-10-13T14:29:30;24.10;99.90
10512;DHT22;5304;48.604;2.096;2023-10-13T14:32:14;24.00;99.90
10512;DHT22;5304;48.604;2.096;2023-10-13T14:34:59;24.10;99.90
10512;DHT22;5304;48.604;2.096;2023-10-13T14:37:44;23.90;99.90
10512;DHT22;5304;48.604;2.096;2023-10-13T14:40:28;24.00;99.90
10512;DHT22;5304;48.604;2.096;2023-10-13T14:43:13;23.90;99.90
10512;DHT22;5304;48.604;2.096;2023-10-13T14:45:57;23.90;99.90
10512;DHT22;5304;48.604;2.096;2023-10-13T14:48:45;23.90;99.90
10512;DHT22;5304;48.604;2.096;2023-10-13T14:51:33;23.90;99.90
10512;DHT22;5304;48.604;2.096;2023-10-13T14:54:17;23.90;99.90
10512;DHT22;5304;48.604;2.096;2023-10-13T14:57:09;23.90;99.90
10512;DHT22;5304;48.604;2.096;2023-10-13T14:59:54;24.00;99.90
10512;DHT22;5304;48.604;2.096;2023-10-13T15:02:39;24.00;99.90
10512;DHT22;5304;48.604;2.096;2023-10-13T15:05:27;24.00;99.90
10512;DHT22;5304;48.604;2.096;2023-10-13T15:08:14;24.00;99.90
10512;DHT22;5304;48.604;2.096;2023-10-13T15:11:23;24.00;99.90
10512;DHT22;5304;48.604;2.096;2023-10-13T15:14:24;24.00;99.90
10512;DHT22;5304;48.604;2.096;2023-10-13T15:17:09;24.00;99.90
10512;DHT22;5304;48.604;2.096;2023-10-13T15:19:54;23.90;99.90
10512;DHT22;5304;48.604;2.096;2023-10-13T15:22:38;23.90;99.90
10512;DHT22;5304;48.604;2.096;2023-10-13T15:25:23;23.90;99.90
10512;DHT22;5304;48.604;2.096;2023-10-13T15:28:13;23.90;99.90
10512;DHT22;5304;48.604;2.096;2023-10-13T15:30:58;23.90;99.90
10512;DHT22;5304;48.604;2.096;2023-10-13T15:33:55;23.90;99.90
10512;DHT22;5304;48.604;2.096;2023-10-13T15:36:43;23.80;99.90
10512;DHT22;5304;48.604;2.096;2023-10-13T15:39:27;23.80;99.90
10512;DHT22;5304;48.604;2.096;2023-10-13T15:42:12;23.80;99.90
10512;DHT22;5304;48.604;2.096;2023-10-13T15:44:58;23.70;99.90
10512;DHT22;5304;48.604;2.096;2023-10-13T15:47:44;23.70;99.90
10512;DHT22;5304;48.604;2.096;2023-10-13T15:50:36;23.60;99.90
10512;DHT22;5304;48.604;2.096;2023-10-13T15:53:23;23.60;99.90
10512;DHT22;5304;48.604;2.096;2023-10-13T15:56:10;23.70;99.90
10512;DHT22;5304;48.604;2.096;2023-10-13T15:58:59;23.60;99.90
10512;DHT22;5304;48.604;2.096;2023-10-13T16:01:45;23.60;99.90
10512;DHT22;5304;48.604;2.096;2023-10-13T16:04:32;23.60;99.90
10512;DHT22;5304;48.604;2.096;2023-10-13T16:07:17;23.60;99.90
10512;DHT22;5304;48.604;2.096;2023-10-13T16:10:02;23.60;99.90
10512;DHT22;5304;48.604;2.096;2023-10-13T16:12:55;23.50;99.90
10512;DHT22;5304;48.604;2.096;2023-10-13T16:15:42;23.60;99.90
10512;DHT22;5304;48.604;2.096;2023-10-13T16:18:26;23.50;99.90
10512;DHT22;5304;48.604;2.096;2023-10-13T16:21:11;23.50;99.90
10512;DHT22;5304;48.604;2.096;2023-10-13T16:23:59;23.50;99.90
10512;DHT22;5304;48.604;2.096;2023-10-13T16:29:28;23.50;99.90
10512;DHT22;5304;48.604;2.096;2023-10-13T16:32:15;23.30;99.90
10512;DHT22;5304;48.604;2.096;2023-10-13T16:35:04;23.30;99.90
10512;DHT22;5304;48.604;2.096;2023-10-13T16:37:49;23.40;99.90
10512;DHT22;5304;48.604;2.096;2023-10-13T16:40:37;23.40;99.90
10512;DHT22;5304;48.604;2.096;2023-10-13T16:43:23;23.30;99.90
10512;DHT22;5304;48.604;2.096;2023-10-13T16:46:13;23.20;99.90
10512;DHT22;5304;48.604;2.096;2023-10-13T16:48:59;23.20;99.90
10512;DHT22;5304;48.604;2.096;2023-10-13T16:51:44;23.20;99.90
10512;DHT22;5304;48.604;2.096;2023-10-13T16:54:28;23.10;99.90
10512;DHT22;5304;48.604;2.096;2023-10-13T16:57:13;23.10;99.90
10512;DHT22;5304;48.604;2.096;2023-10-13T16:59:57;23.10;99.90
10512;DHT22;5304;48.604;2.096;2023-10-13T17:02:41;23.10;99.90
10512;DHT22;5304;48.604;2.096;2023-10-13T17:05:26;23.20;99.90
10512;DHT22;5304;48.604;2.096;2023-10-13T17:08:12;23.10;99.90
10512;DHT22;5304;48.604;2.096;2023-10-13T17:11:10;23.10;99.90
10512;DHT22;5304;48.604;2.096;2023-10-13T17:13:55;23.10;99.90
10512;DHT22;5304;48.604;2.096;2023-10-13T17:16:40;23.10;99.90
10512;DHT22;5304;48.604;2.096;2023-10-13T17:19:28;23.10;99.90
10512;DHT22;5304;48.604;2.096;2023-10-13T17:22:12;23.10;99.90
10512;DHT22;5304;48.604;2.096;2023-10-13T17:24:59;23.10;99.90
10512;DHT22;5304;48.604;2.096;2023-10-13T17:27:44;23.10;99.90
10512;DHT22;5304;48.604;2.096;2023-10-13T17:30:29;23.10;99.90
10512;DHT22;5304;48.604;2.096;2023-10-13T17:33:13;23.10;99.90
10512;DHT22;5304;48.604;2.096;2023-10-13T17:35:59;23.00;99.90
10512;DHT22;5304;48.604;2.096;2023-10-13T17:38:43;22.90;99.90
10512;DHT22;5304;48.604;2.096;2023-10-13T17:41:28;22.90;99.90
10512;DHT22;5304;48.604;2.096;2023-10-13T17:44:16;22.90;99.90
10512;DHT22;5304;48.604;2.096;2023-10-13T17:47:00;22.80;99.90
10512;DHT22;5304;48.604;2.096;2023-10-13T17:49:45;22.70;99.90
10512;DHT22;5304;48.604;2.096;2023-10-13T17:52:29;22.60;99.90
10512;DHT22;5304;48.604;2.096;2023-10-13T17:55:14;22.50;99.90
10512;DHT22;5304;48.604;2.096;2023-10-13T17:58:00;22.50;99.90
10512;DHT22;5304;48.604;2.096;2023-10-13T18:00:44;22.40;99.90
10512;DHT22;5304;48.604;2.096;2023-10-13T18:03:29;22.40;99.90
10512;DHT22;5304;48.604;2.096;2023-10-13T18:06:14;22.40;99.90
10512;DHT22;5304;48.604;2.096;2023-10-13T18:09:00;22.40;99.90
10512;DHT22;5304;48.604;2.096;2023-10-13T18:11:44;22.30;99.90
10512;DHT22;5304;48.604;2.096;2023-10-13T18:14:30;22.30;99.90
10512;DHT22;5304;48.604;2.096;2023-10-13T18:17:14;22.20;99.90
10512;DHT22;5304;48.604;2.096;2023-10-13T18:20:00;22.20;99.90
10512;DHT22;5304;48.604;2.096;2023-10-13T18:22:47;22.10;99.90
10512;DHT22;5304;48.604;2.096;2023-10-13T18:25:35;22.10;99.90
10512;DHT22;5304;48.604;2.096;2023-10-13T18:28:20;22.10;99.90
10512;DHT22;5304;48.604;2.096;2023-10-13T18:31:05;22.10;99.90
10512;DHT22;5304;48.604;2.096;2023-10-13T18:33:50;22.00;99.90
10512;DHT22;5304;48.604;2.096;2023-10-13T18:36:41;22.00;99.90
10512;DHT22;5304;48.604;2.096;2023-10-13T18:39:31;22.00;99.90
10512;DHT22;5304;48.604;2.096;2023-10-13T18:42:18;21.90;99.90
10512;DHT22;5304;48.604;2.096;2023-10-13T18:45:04;21.90;99.90
10512;DHT22;5304;48.604;2.096;2023-10-13T18:47:49;21.80;99.90
10512;DHT22;5304;48.604;2.096;2023-10-13T18:50:40;21.80;99.90
10512;DHT22;5304;48.604;2.096;2023-10-13T18:53:26;21.80;99.90
10512;DHT22;5304;48.604;2.096;2023-10-13T18:56:20;21.80;99.90
10512;DHT22;5304;48.604;2.096;2023-10-13T18:59:04;21.70;99.90
10512;DHT22;5304;48.604;2.096;2023-10-13T19:01:48;21.70;99.90
10512;DHT22;5304;48.604;2.096;2023-10-13T19:04:33;21.60;99.90
10512;DHT22;5304;48.604;2.096;2023-10-13T19:07:19;21.60;99.90
10512;DHT22;5304;48.604;2.096;2023-10-13T19:10:04;21.50;99.90
10512;DHT22;5304;48.604;2.096;2023-10-13T19:13:01;21.50;99.90
10512;DHT22;5304;48.604;2.096;2023-10-13T19:15:45;21.40;99.90
10512;DHT22;5304;48.604;2.096;2023-10-13T19:18:29;21.40;99.90
10512;DHT22;5304;48.604;2.096;2023-10-13T19:21:16;21.30;99.90
10512;DHT22;5304;48.604;2.096;2023-10-13T19:24:04;21.20;99.90
10512;DHT22;5304;48.604;2.096;2023-10-13T19:26:49;21.20;99.90
10512;DHT22;5304;48.604;2.096;2023-10-13T19:29:37;21.10;99.90
10512;DHT22;5304;48.604;2.096;2023-10-13T19:32:21;21.10;99.90
10512;DHT22;5304;48.604;2.096;2023-10-13T19:35:07;21.00;99.90
10512;DHT22;5304;48.604;2.096;2023-10-13T19:37:51;21.00;99.90
10512;DHT22;5304;48.604;2.096;2023-10-13T19:40:36;21.00;99.90
10512;DHT22;5304;48.604;2.096;2023-10-13T19:43:21;21.00;99.90
10512;DHT22;5304;48.604;2.096;2023-10-13T19:46:05;21.00;99.90
10512;DHT22;5304;48.604;2.096;2023-10-13T19:48:49;20.90;99.90
10512;DHT22;5304;48.604;2.096;2023-10-13T19:51:34;20.90;99.90
10512;DHT22;5304;48.604;2.096;2023-10-13T19:54:19;20.80;99.90
10512;DHT22;5304;48.604;2.096;2023-10-13T19:57:05;20.80;99.90
